Terminal Aerodrome Forecast
Issued by NWS Albany, NY

Home | Current Version | Previous Version | Text Only | Print | Product List | Glossary On
Versions: 1 2 3 4 5 6 7 8 9 10 11 12 13 14 15 16 17 18
000
FTUS41 KALY 260419 AAA
TAFALB
TAF AMD
KALB 260419Z 2604/2624 22005KT P6SM FEW040 SCT250
     FM260600 24004KT 3SM BR SCT005
     FM261200 29006KT P6SM SCT030 SCT250
     FM261500 30012KT P6SM SCT040=

USA.gov is the U.S. government's official web portal to all federal, state and local government web resources and services.